Time;durP1;ratioP1;P1;durP2;ratioP2;P2;SDS_P1;SDS_P2;PMS_P1;PMS_P2;Temp;Humidity;BMP_temperature;BMP_pressure;BME280_temperature;BME280_humidity;BME280_pressure;Samples;Min_cycle;Max_cycle;Signal;HPM_P1;HPM_P2
2023/02/21 02:15:02;;;;;;;36.38;6.28;;;21.60;48.40;;;;;;5009494;28;20149;-66
2023/02/21 02:17:41;;;;;;;30.35;5.65;;;21.60;48.30;;;;;;5009036;28;20180;-64
2023/02/21 02:20:44;;;;;;;24.30;4.72;;;21.50;48.30;;;;;;5010162;28;20162;-65
2023/02/21 02:23:38;;;;;;;20.10;4.43;;;21.50;48.10;;;;;;5009478;28;20069;-64
2023/02/21 02:26:07;;;;;;;23.02;5.30;;;21.40;48.10;;;;;;5009766;28;20125;-65
2023/02/21 02:29:10;;;;;;;35.47;5.88;;;21.40;48.50;;;;;;5009611;28;20071;-64
2023/02/21 02:31:52;;;;;;;46.65;6.93;;;21.30;48.70;;;;;;5009319;28;20164;-64
2023/02/21 02:34:34;;;;;;;30.45;5.80;;;21.30;48.90;;;;;;5009498;28;20540;-62
2023/02/21 02:37:00;;;;;;;31.25;5.95;;;21.30;49.10;;;;;;5009176;28;20105;-62
2023/02/21 02:39:38;;;;;;;27.95;5.95;;;21.30;48.90;;;;;;5009438;28;20074;-63
2023/02/21 02:42:17;;;;;;;43.80;6.22;;;21.30;49.60;;;;;;5024479;28;20225;-64
2023/02/21 02:44:56;;;;;;;33.20;5.78;;;21.20;48.90;;;;;;5009650;28;20078;-63
2023/02/21 02:47:33;;;;;;;31.83;6.65;;;21.20;49.20;;;;;;5008827;28;20105;-62
2023/02/21 02:50:00;;;;;;;;;;;21.20;49.90;;;;;;5010241;28;20074;-65
2023/02/21 02:52:26;;;;;;;45.92;7.13;;;21.10;49.50;;;;;;5009408;28;20057;-65
2023/02/21 02:55:01;;;;;;;51.38;7.18;;;21.10;49.60;;;;;;5009159;28;20613;-64
2023/02/21 02:57:37;;;;;;;54.90;7.80;;;21.00;49.60;;;;;;5008451;28;20169;-64
2023/02/21 03:00:05;;;;;;;70.35;8.30;;;21.00;49.70;;;;;;5009372;28;20070;-65
2023/02/21 03:03:05;;;;;;;49.40;8.65;;;20.90;49.80;;;;;;5009570;28;20113;-64
2023/02/21 03:05:47;;;;;;;58.08;9.48;;;20.90;49.90;;;;;;4972721;28;20114;-63
2023/02/21 03:08:55;;;;;;;50.03;7.43;;;20.90;50.20;;;;;;5009015;28;20078;-62
2023/02/21 03:11:25;;;;;;;43.67;8.45;;;20.80;50.40;;;;;;5002436;28;20083;-65
2023/02/21 03:13:56;;;;;;;46.72;8.27;;;20.70;50.70;;;;;;5008181;28;20098;-66
2023/02/21 03:16:39;;;;;;;46.20;8.50;;;20.70;50.60;;;;;;5009496;28;20105;-65
2023/02/21 03:19:24;;;;;;;54.50;9.00;;;20.60;50.80;;;;;;5008281;28;20078;-65
2023/02/21 03:21:55;;;;;;;38.28;8.88;;;20.60;50.80;;;;;;5009564;28;20067;-63
2023/02/21 03:24:23;;;;;;;47.28;8.07;;;20.50;51.30;;;;;;5008977;28;20097;-63
2023/02/21 03:26:52;;;;;;;45.10;8.65;;;20.40;51.20;;;;;;5008655;28;20855;-63
2023/02/21 03:29:20;;;;;;;62.17;8.23;;;20.30;51.50;;;;;;5009430;28;20094;-66
2023/02/21 03:34:42;;;;;;;47.05;8.80;;;20.20;51.70;;;;;;5008586;28;20106;-67
2023/02/21 03:37:16;;;;;;;39.90;9.20;;;20.10;51.50;;;;;;5009985;28;20094;-63
2023/02/21 03:39:43;;;;;;;57.63;12.23;;;20.10;51.60;;;;;;5008798;28;20132;-63
2023/02/21 03:42:09;;;;;;;41.75;8.95;;;20.00;51.30;;;;;;5009421;28;20556;-63
2023/02/21 03:44:36;;;;;;;41.40;8.50;;;20.00;51.40;;;;;;5009755;28;20110;-65
2023/02/21 03:47:02;;;;;;;56.17;9.65;;;19.90;51.60;;;;;;5008750;28;20498;-63
2023/02/21 03:49:28;;;;;;;51.97;9.90;;;19.90;51.90;;;;;;5009379;28;20074;-64
2023/02/21 03:51:55;;;;;;;61.03;10.85;;;19.80;52.00;;;;;;5009503;28;20547;-64
2023/02/21 03:54:21;;;;;;;40.47;9.77;;;19.70;51.60;;;;;;5009030;28;20110;-64
2023/02/21 03:56:47;;;;;;;59.40;10.13;;;19.70;51.90;;;;;;5009760;28;20518;-63
2023/02/21 03:59:14;;;;;;;49.03;10.43;;;19.60;51.90;;;;;;5009291;28;20153;-66
2023/02/21 04:01:40;;;;;;;61.60;11.90;;;19.60;52.00;;;;;;5009826;28;20548;-64
2023/02/21 04:04:07;;;;;;;50.20;11.23;;;19.50;52.10;;;;;;5010200;28;20110;-64
2023/02/21 04:06:33;;;;;;;44.78;11.15;;;19.50;52.10;;;;;;5008232;28;20090;-65
2023/02/21 04:08:59;;;;;;;65.78;13.05;;;19.40;52.50;;;;;;5010107;28;20117;-64
2023/02/21 04:11:26;;;;;;;60.75;12.32;;;19.30;52.70;;;;;;5009523;28;20080;-64
2023/02/21 04:13:52;;;;;;;82.05;14.63;;;19.20;52.90;;;;;;5009723;28;20071;-65
2023/02/21 04:16:19;;;;;;;60.33;13.18;;;19.20;53.00;;;;;;5010622;28;20074;-65
2023/02/21 04:18:45;;;;;;;55.65;13.40;;;19.10;53.10;;;;;;5012293;28;20640;-62
2023/02/21 04:21:16;;;;;;;71.15;14.93;;;19.10;53.00;;;;;;5012388;28;20097;-62
2023/02/21 04:23:43;;;;;;;89.13;15.20;;;19.00;53.50;;;;;;5009285;28;20128;-63
2023/02/21 04:26:09;;;;;;;75.68;13.70;;;19.00;54.10;;;;;;5012030;28;20089;-62
2023/02/21 04:28:36;;;;;;;85.35;14.25;;;18.90;54.30;;;;;;5012824;28;20269;-62
2023/02/21 04:31:02;;;;;;;80.43;13.63;;;18.80;54.40;;;;;;5011503;28;20161;-63
2023/02/21 04:33:28;;;;;;;67.03;12.32;;;18.80;54.70;;;;;;5013641;28;20591;-63
2023/02/21 04:35:55;;;;;;;65.80;12.50;;;18.70;55.10;;;;;;5012912;28;20082;-62
2023/02/21 04:38:21;;;;;;;72.75;12.05;;;18.60;55.00;;;;;;5011868;28;20384;-65
2023/02/21 04:40:47;;;;;;;82.50;12.57;;;18.60;55.10;;;;;;5012102;28;20619;-63
2023/02/21 04:43:14;;;;;;;79.25;14.02;;;18.50;55.30;;;;;;5011987;28;20157;-63
2023/02/21 04:45:40;;;;;;;129.85;15.88;;;18.50;55.70;;;;;;5011732;28;20085;-64
2023/02/21 04:48:07;;;;;;;129.23;18.88;;;18.40;55.80;;;;;;5011102;28;20083;-63
2023/02/21 04:50:33;;;;;;;115.93;16.75;;;18.40;56.20;;;;;;5012445;28;20098;-64
2023/02/21 04:52:59;;;;;;;111.88;15.05;;;18.30;56.60;;;;;;5011719;28;20109;-64
2023/02/21 04:55:26;;;;;;;93.93;13.57;;;18.30;56.90;;;;;;5012442;28;20075;-63
2023/02/21 04:57:52;;;;;;;84.53;13.60;;;18.20;56.80;;;;;;5011324;28;20073;-64
2023/02/21 05:00:19;;;;;;;83.35;15.57;;;18.20;56.60;;;;;;5012148;28;20067;-64
2023/02/21 05:02:45;;;;;;;65.43;14.07;;;18.20;56.70;;;;;;5011214;28;20141;-61
2023/02/21 05:05:12;;;;;;;78.28;15.88;;;18.10;56.90;;;;;;5010440;28;20132;-62
2023/02/21 05:07:41;;;;;;;84.18;23.83;;;18.10;57.20;;;;;;5010435;28;20169;-62
2023/02/21 05:10:08;;;;;;;99.95;23.38;;;18.10;57.90;;;;;;5011454;28;20164;-64
2023/02/21 05:12:36;;;;;;;75.63;17.58;;;18.10;57.70;;;;;;5009799;28;20067;-64
2023/02/21 05:15:03;;;;;;;85.00;17.90;;;18.00;57.50;;;;;;5010853;28;20082;-64
2023/02/21 05:17:29;;;;;;;82.93;16.40;;;17.90;57.70;;;;;;5009658;28;20638;-62
2023/02/21 05:19:56;;;;;;;67.40;15.00;;;17.90;58.00;;;;;;5011234;28;20093;-63
2023/02/21 05:22:22;;;;;;;80.07;16.13;;;17.90;58.30;;;;;;5010826;28;20416;-63
2023/02/21 05:24:49;;;;;;;101.57;16.27;;;17.90;58.30;;;;;;5010800;28;20164;-63
2023/02/21 05:27:17;;;;;;;67.65;14.35;;;17.90;58.20;;;;;;5008875;28;20125;-61
2023/02/21 05:29:51;;;;;;;75.95;15.90;;;17.80;58.50;;;;;;5010972;28;20540;-64
2023/02/21 05:32:20;;;;;;;110.35;24.13;;;17.80;58.90;;;;;;5010950;28;20156;-64
2023/02/21 05:34:46;;;;;;;76.70;16.90;;;17.80;58.90;;;;;;5010339;28;20082;-65
2023/02/21 05:37:19;;;;;;;98.70;16.58;;;17.70;59.00;;;;;;5010722;28;20086;-62
2023/02/21 05:39:47;;;;;;;80.32;16.85;;;17.60;58.90;;;;;;5009665;28;20178;-66
2023/02/21 05:42:13;;;;;;;94.90;16.48;;;17.60;59.00;;;;;;5011081;28;20558;-65
2023/02/21 05:44:40;;;;;;;76.70;16.08;;;17.60;59.30;;;;;;5010330;28;20145;-62
2023/02/21 05:47:06;;;;;;;82.75;15.45;;;17.60;59.20;;;;;;5010610;28;20106;-63
2023/02/21 05:49:33;;;;;;;77.13;16.60;;;17.60;58.80;;;;;;5010059;28;20162;-66
2023/02/21 05:51:59;;;;;;;70.75;16.05;;;17.50;58.80;;;;;;5010499;28;20528;-63
2023/02/21 05:54:25;;;;;;;79.75;16.27;;;17.40;58.80;;;;;;5009184;28;20189;-66
2023/02/21 05:56:52;;;;;;;83.55;17.90;;;17.40;58.70;;;;;;5010443;28;20081;-65
2023/02/21 05:59:20;;;;;;;98.35;19.77;;;17.30;58.70;;;;;;5009781;28;20074;-66
2023/02/21 06:01:48;;;;;;;92.65;19.33;;;17.30;59.40;;;;;;5009739;28;20095;-64
2023/02/21 06:04:14;;;;;;;93.55;19.75;;;17.30;59.00;;;;;;5007776;28;20071;-63
2023/02/21 06:06:41;;;;;;;86.18;19.25;;;17.20;59.20;;;;;;5009542;28;20097;-65
2023/02/21 06:09:08;;;;;;;90.63;18.20;;;17.10;59.30;;;;;;5010059;28;20156;-63
2023/02/21 06:11:36;;;;;;;77.82;18.90;;;17.10;60.10;;;;;;5009288;28;20062;-63
2023/02/21 06:14:05;;;;;;;85.10;20.27;;;17.00;59.80;;;;;;5010193;28;20606;-63
2023/02/21 06:16:36;;;;;;;99.70;18.73;;;17.00;59.60;;;;;;5009523;28;20094;-65
2023/02/21 06:19:05;;;;;;;95.68;18.27;;;16.90;59.70;;;;;;5008124;28;20069;-64
2023/02/21 06:21:32;;;;;;;83.32;18.95;;;16.90;60.10;;;;;;5009718;28;20067;-64
2023/02/21 06:23:59;;;;;;;116.53;29.27;;;16.80;60.50;;;;;;5010423;28;20098;-67
2023/02/21 06:26:26;;;;;;;195.57;121.18;;;16.80;61.00;;;;;;5009198;28;20086;-67
2023/02/21 06:28:52;;;;;;;84.95;21.20;;;16.80;60.80;;;;;;5010008;28;20074;-66
2023/02/21 06:31:19;;;;;;;84.10;18.88;;;16.70;62.20;;;;;;5009476;28;20066;-64
2023/02/21 06:33:47;;;;;;;80.95;18.20;;;16.70;61.80;;;;;;5008957;28;20138;-64
2023/02/21 06:36:17;;;;;;;98.20;18.35;;;16.70;61.20;;;;;;5009792;28;20106;-65
2023/02/21 06:38:46;;;;;;;76.45;18.25;;;16.60;61.20;;;;;;5009074;28;20078;-65
2023/02/21 06:41:14;;;;;;;79.38;19.75;;;16.60;61.30;;;;;;5009130;28;20074;-66
2023/02/21 06:43:41;;;;;;;90.10;21.05;;;16.50;61.20;;;;;;5009138;28;20071;-65
2023/02/21 06:46:07;;;;;;;80.22;19.52;;;16.50;61.50;;;;;;5008206;28;20082;-64
2023/02/21 06:48:34;;;;;;;68.47;18.90;;;16.40;61.20;;;;;;5008826;28;20070;-63
2023/02/21 06:51:00;;;;;;;83.88;19.80;;;16.40;61.20;;;;;;5008706;28;20074;-66
2023/02/21 06:53:26;;;;;;;73.38;18.88;;;16.40;60.70;;;;;;5008936;28;20101;-63
2023/02/21 06:55:53;;;;;;;71.57;17.05;;;16.40;61.10;;;;;;5009672;28;21425;-64
2023/02/21 06:58:19;;;;;;;59.88;15.88;;;16.40;60.80;;;;;;5007976;28;20093;-64
2023/02/21 07:00:46;;;;;;;68.32;14.80;;;16.30;60.50;;;;;;5008503;28;20074;-63
2023/02/21 07:03:12;;;;;;;39.85;11.52;;;16.30;60.30;;;;;;5008460;28;20082;-64
2023/02/21 07:05:38;;;;;;;47.88;9.30;;;16.30;59.90;;;;;;5007078;28;20070;-64
2023/02/21 07:08:05;;;;;;;28.25;8.50;;;16.20;59.10;;;;;;5006657;28;20081;-65
2023/02/21 07:10:33;;;;;;;39.72;8.35;;;16.20;58.90;;;;;;5008234;28;20499;-64
2023/02/21 07:13:00;;;;;;;33.80;8.55;;;16.20;59.20;;;;;;5009206;28;20144;-64
2023/02/21 07:15:26;;;;;;;28.48;7.70;;;16.20;59.50;;;;;;5008483;28;20536;-66
2023/02/21 07:17:52;;;;;;;30.70;7.78;;;16.10;59.40;;;;;;5008715;28;20078;-64
2023/02/21 07:20:19;;;;;;;31.33;8.45;;;16.10;59.60;;;;;;5007806;28;20066;-64
2023/02/21 07:22:45;;;;;;;35.58;9.00;;;16.10;59.80;;;;;;5007345;28;20110;-64
2023/02/21 07:25:20;;;;;;;37.50;8.38;;;16.10;59.90;;;;;;5008509;28;20067;-65
2023/02/21 07:27:47;;;;;;;29.60;7.80;;;16.00;60.10;;;;;;5007422;28;20125;-65
2023/02/21 07:30:15;;;;;;;38.45;8.48;;;16.00;60.40;;;;;;5007958;28;20071;-63
2023/02/21 07:32:42;;;;;;;22.75;7.65;;;16.00;60.20;;;;;;5009631;28;20074;-62
2023/02/21 07:35:08;;;;;;;24.33;8.15;;;16.00;61.00;;;;;;5006535;28;20070;-65
2023/02/21 07:37:35;;;;;;;24.27;8.00;;;15.90;61.30;;;;;;5007821;28;20100;-62
2023/02/21 07:40:01;;;;;;;23.75;7.65;;;15.90;61.20;;;;;;5008279;28;20074;-63
2023/02/21 07:42:28;;;;;;;22.27;7.60;;;15.90;61.10;;;;;;5006906;28;20592;-63
2023/02/21 07:44:56;;;;;;;24.42;7.95;;;15.90;61.20;;;;;;5008656;28;20075;-63
2023/02/21 07:47:26;;;;;;;23.08;7.85;;;15.90;62.40;;;;;;5008606;28;20101;-64
2023/02/21 07:49:53;;;;;;;32.33;8.27;;;15.90;62.70;;;;;;5009399;28;20090;-65
2023/02/21 07:52:21;;;;;;;31.85;8.82;;;15.80;62.10;;;;;;5012041;28;20192;-65
2023/02/21 07:54:47;;;;;;;28.27;8.63;;;15.80;63.30;;;;;;5010574;28;20122;-64
2023/02/21 07:57:15;;;;;;;23.42;7.80;;;15.80;63.60;;;;;;5011473;28;20158;-62
2023/02/21 07:59:42;;;;;;;20.45;8.25;;;15.70;63.50;;;;;;5012585;28;20071;-63
2023/02/21 08:02:12;;;;;;;32.95;8.35;;;15.70;62.70;;;;;;5012430;28;20103;-64
2023/02/21 08:04:39;;;;;;;26.55;8.98;;;15.70;61.90;;;;;;5011474;28;20434;-63
2023/02/21 08:07:06;;;;;;;31.50;9.73;;;15.70;62.40;;;;;;5011474;28;20082;-65
2023/02/21 08:09:33;;;;;;;31.35;9.98;;;15.60;62.30;;;;;;5012141;28;20094;-64
2023/02/21 08:11:59;;;;;;;33.10;9.90;;;15.70;62.60;;;;;;5012397;28;20085;-64
2023/02/21 08:14:25;;;;;;;27.00;9.98;;;15.80;62.30;;;;;;5011911;28;20066;-65
2023/02/21 08:16:52;;;;;;;36.83;10.50;;;15.80;62.30;;;;;;5012275;28;20070;-64
2023/02/21 08:19:18;;;;;;;28.33;10.98;;;15.80;62.20;;;;;;5011220;28;20551;-65
2023/02/21 08:21:46;;;;;;;48.35;23.27;;;15.90;62.60;;;;;;5011017;28;20078;-64
2023/02/21 08:24:13;;;;;;;60.58;29.45;;;15.90;61.80;;;;;;5011547;28;20137;-65
2023/02/21 08:26:40;;;;;;;60.75;30.40;;;16.00;62.10;;;;;;5011181;28;20456;-64
2023/02/21 08:29:08;;;;;;;51.40;22.92;;;16.00;62.20;;;;;;5010145;28;20087;-65
2023/02/21 08:31:43;;;;;;;49.58;21.50;;;16.00;62.40;;;;;;5011743;28;20074;-64
2023/02/21 08:34:10;;;;;;;32.47;16.58;;;16.00;62.40;;;;;;5011133;28;20097;-64
2023/02/21 08:36:39;;;;;;;33.45;10.60;;;16.00;62.20;;;;;;5012601;28;20086;-65
2023/02/21 08:39:06;;;;;;;23.35;9.55;;;16.00;62.70;;;;;;5010261;28;20082;-65
2023/02/21 08:41:43;;;;;;;27.67;9.55;;;16.00;62.50;;;;;;5011393;28;20103;-65
2023/02/21 08:44:12;;;;;;;33.70;9.82;;;16.00;62.60;;;;;;5011256;28;20081;-65
2023/02/21 08:46:39;;;;;;;35.65;8.73;;;16.00;62.60;;;;;;5009394;28;20098;-64
2023/02/21 08:49:06;;;;;;;37.60;9.02;;;15.90;62.20;;;;;;5009063;28;20063;-64
2023/02/21 08:51:33;;;;;;;29.40;8.93;;;15.90;62.00;;;;;;5011638;28;20090;-65
2023/02/21 08:54:00;;;;;;;37.72;9.23;;;15.90;61.80;;;;;;5010792;28;20194;-62
2023/02/21 08:56:27;;;;;;;31.02;9.73;;;15.90;61.90;;;;;;5009699;28;20506;-63
2023/02/21 08:58:54;;;;;;;33.58;9.85;;;15.90;61.70;;;;;;5010328;28;20082;-65
2023/02/21 09:01:22;;;;;;;34.42;9.50;;;15.90;62.50;;;;;;5009411;28;20158;-64
2023/02/21 09:03:48;;;;;;;36.25;10.50;;;15.90;62.30;;;;;;5012134;28;20120;-63
2023/02/21 09:06:16;;;;;;;39.10;11.98;;;15.90;62.60;;;;;;5010453;28;20092;-65
2023/02/21 09:08:42;;;;;;;55.03;11.77;;;15.90;62.40;;;;;;5010592;28;20109;-65
2023/02/21 09:11:09;;;;;;;58.67;13.77;;;15.90;61.80;;;;;;5010507;28;20439;-66
2023/02/21 09:13:35;;;;;;;51.65;14.52;;;15.90;62.10;;;;;;5011538;28;20082;-64
2023/02/21 09:16:03;;;;;;;61.03;16.90;;;15.90;61.80;;;;;;5011455;28;20077;-63
2023/02/21 09:18:30;;;;;;;64.00;19.75;;;15.90;61.60;;;;;;5010716;28;20070;-65
2023/02/21 09:20:58;;;;;;;62.75;17.83;;;15.80;62.00;;;;;;5010868;28;20074;-64
2023/02/21 09:23:27;;;;;;;83.82;20.40;;;15.80;61.80;;;;;;5010093;28;20062;-63
2023/02/21 09:25:53;;;;;;;83.70;21.05;;;15.80;62.00;;;;;;5010842;28;20144;-65
2023/02/21 09:28:20;;;;;;;99.95;22.88;;;15.80;61.50;;;;;;5010860;28;20116;-65
2023/02/21 09:30:47;;;;;;;107.25;24.52;;;15.90;61.50;;;;;;5010037;28;20144;-64
2023/02/21 09:33:15;;;;;;;112.85;25.55;;;15.90;61.50;;;;;;5010970;28;20077;-64
2023/02/21 09:35:41;;;;;;;111.63;25.00;;;15.90;61.60;;;;;;5010248;28;20086;-63
2023/02/21 09:38:08;;;;;;;89.70;25.50;;;15.90;62.60;;;;;;5009832;28;20079;-64
2023/02/21 09:40:40;;;;;;;87.78;24.48;;;15.90;62.50;;;;;;5009834;28;20101;-64
2023/02/21 09:43:14;;;;;;;101.78;28.67;;;15.80;62.50;;;;;;5009599;28;20074;-63
2023/02/21 09:45:43;;;;;;;100.15;28.00;;;15.90;63.00;;;;;;5011083;28;20213;-63
2023/02/21 09:48:22;;;;;;;88.40;27.52;;;15.80;63.40;;;;;;5008416;28;20097;-64
2023/02/21 09:50:55;;;;;;;93.65;27.40;;;15.80;63.70;;;;;;5009119;28;20066;-65
2023/02/21 09:53:42;;;;;;;111.97;29.13;;;15.80;64.30;;;;;;5009245;28;20110;-64
2023/02/21 09:56:24;;;;;;;107.57;28.95;;;15.70;63.20;;;;;;5009052;28;20163;-64
2023/02/21 09:58:50;;;;;;;102.18;28.83;;;15.70;63.40;;;;;;5008716;28;20078;-63
2023/02/21 10:01:54;;;;;;;90.97;30.83;;;15.70;63.90;;;;;;5010427;28;20436;-65
2023/02/21 10:05:04;;;;;;;106.45;30.13;;;15.70;63.70;;;;;;5010678;28;20502;-64
2023/02/21 10:07:36;;;;;;;91.57;29.13;;;15.70;64.30;;;;;;5008030;28;20098;-64
2023/02/21 10:10:07;;;;;;;99.72;32.53;;;15.70;63.80;;;;;;5009773;28;20471;-63
2023/02/21 10:13:13;;;;;;;112.63;32.15;;;15.70;63.30;;;;;;5009732;28;20067;-64
2023/02/21 10:15:47;;;;;;;98.28;30.80;;;15.70;63.20;;;;;;4997180;28;20082;-63
2023/02/21 10:18:30;;;;;;;101.15;30.00;;;15.70;63.30;;;;;;5008911;28;20077;-63
2023/02/21 10:21:01;;;;;;;103.88;32.58;;;15.80;63.30;;;;;;5007467;28;20071;-65
2023/02/21 10:23:49;;;;;;;93.32;33.38;;;15.80;63.30;;;;;;5009419;28;20158;-63
2023/02/21 10:26:29;;;;;;;115.45;34.88;;;15.80;63.10;;;;;;5008572;28;20098;-63
2023/02/21 10:28:55;;;;;;;97.38;35.72;;;15.80;63.20;;;;;;5008015;28;20074;-66
2023/02/21 10:31:36;;;;;;;98.82;34.40;;;15.90;63.10;;;;;;5008461;28;20081;-64
2023/02/21 10:34:06;;;;;;;101.35;34.63;;;15.80;63.30;;;;;;5010863;28;20074;-63
2023/02/21 10:36:34;;;;;;;92.78;34.03;;;15.80;63.30;;;;;;5009153;28;20094;-65
2023/02/21 10:39:14;;;;;;;108.85;35.92;;;15.80;63.40;;;;;;5009671;28;20079;-63
2023/02/21 10:41:41;;;;;;;88.75;33.70;;;15.80;63.70;;;;;;5008667;28;20084;-66
2023/02/21 10:44:13;;;;;;;113.28;36.33;;;15.70;63.80;;;;;;5008261;28;20089;-63
2023/02/21 10:47:01;;;;;;;98.45;37.78;;;15.70;63.90;;;;;;5008183;28;20094;-61
2023/02/21 10:49:39;;;;;;;85.68;36.95;;;15.60;64.00;;;;;;5007476;28;20086;-63
2023/02/21 10:52:21;;;;;;;100.70;45.60;;;15.60;64.80;;;;;;5008571;28;20071;-62
2023/02/21 10:55:18;;;;;;;109.88;42.55;;;15.50;65.50;;;;;;5008493;28;20106;-63
2023/02/21 10:57:49;;;;;;;117.20;41.97;;;15.40;65.90;;;;;;5008603;28;20082;-65
2023/02/21 11:00:47;;;;;;;103.78;40.45;;;15.30;66.40;;;;;;5008929;28;20084;-63
2023/02/21 11:03:18;;;;;;;;;;;15.20;67.20;;;;;;5009757;28;20109;-62
2023/02/21 11:05:56;;;;;;;107.72;40.63;;;15.10;67.00;;;;;;5007201;28;20008;-64
2023/02/21 11:08:43;;;;;;;92.78;39.25;;;15.10;67.40;;;;;;5008575;28;20074;-64
2023/02/21 11:11:10;;;;;;;89.43;39.50;;;15.00;68.20;;;;;;5007948;28;20175;-65
2023/02/21 11:13:37;;;;;;;91.25;39.10;;;14.90;68.40;;;;;;5008782;28;20718;-62
2023/02/21 11:16:16;;;;;;;110.18;41.42;;;14.90;68.80;;;;;;5008942;28;20071;-64
2023/02/21 11:18:42;;;;;;;95.95;40.13;;;14.90;69.50;;;;;;5008810;28;20074;-62
2023/02/21 11:21:18;;;;;;;96.03;39.08;;;14.70;69.60;;;;;;5008582;28;20475;-62
2023/02/21 11:24:02;;;;;;;111.32;41.33;;;14.70;70.30;;;;;;5008659;28;20080;-63
2023/02/21 11:26:35;;;;;;;84.80;37.65;;;14.60;70.10;;;;;;5007221;28;20093;-65
2023/02/21 11:29:16;;;;;;;110.00;39.78;;;14.60;70.30;;;;;;5008095;28;20153;-63
2023/02/21 11:31:43;;;;;;;90.13;36.53;;;14.50;70.70;;;;;;5005217;28;20082;-62
2023/02/21 11:34:13;;;;;;;95.05;36.55;;;14.40;70.60;;;;;;5009075;28;20067;-65
2023/02/21 11:36:42;;;;;;;100.53;39.42;;;14.20;70.80;;;;;;5007489;28;20687;-63
2023/02/21 11:39:30;;;;;;;94.22;35.85;;;14.30;71.30;;;;;;5007942;28;20521;-63
2023/02/21 11:42:02;;;;;;;109.32;37.58;;;14.30;71.30;;;;;;5007649;28;20112;-64
2023/02/21 11:44:36;;;;;;;86.43;35.60;;;14.30;71.30;;;;;;5008542;28;20606;-64
2023/02/21 11:47:21;;;;;;;88.03;35.60;;;14.40;71.30;;;;;;5007653;28;20090;-64
2023/02/21 11:50:15;;;;;;;91.00;33.03;;;14.60;70.30;;;;;;5008475;28;20153;-67
2023/02/21 11:52:50;;;;;;;93.32;33.28;;;15.20;68.90;;;;;;5008531;28;20082;-65
2023/02/21 11:55:22;;;;;;;87.40;31.98;;;15.50;68.40;;;;;;5005992;28;20149;-64
2023/02/21 11:58:24;;;;;;;85.40;31.30;;;15.70;67.10;;;;;;5008167;28;20104;-66
2023/02/21 12:01:06;;;;;;;77.95;30.80;;;15.90;66.20;;;;;;5009432;28;20080;-65
2023/02/21 12:04:14;;;;;;;80.82;29.55;;;15.80;65.70;;;;;;5009239;28;20067;-65
2023/02/21 12:07:06;;;;;;;82.70;28.83;;;15.50;66.10;;;;;;5008068;28;20114;-66
2023/02/21 12:10:05;;;;;;;78.38;28.17;;;15.50;66.30;;;;;;5008186;28;20144;-65
2023/02/21 12:12:51;;;;;;;85.85;27.70;;;15.60;65.90;;;;;;5004507;28;20107;-66
2023/02/21 12:15:34;;;;;;;92.97;27.90;;;15.60;65.60;;;;;;5007521;28;20070;-64
2023/02/21 12:18:12;;;;;;;86.38;27.52;;;15.60;65.00;;;;;;5007736;28;20083;-66
2023/02/21 12:21:07;;;;;;;69.03;25.08;;;15.60;64.50;;;;;;5007468;28;20066;-64
2023/02/21 12:24:10;;;;;;;76.38;25.27;;;15.60;64.40;;;;;;5008125;28;20435;-66
2023/02/21 12:26:49;;;;;;;68.60;25.30;;;15.60;64.20;;;;;;5007253;28;20086;-65
2023/02/21 12:29:52;;;;;;;69.07;26.27;;;15.60;64.60;;;;;;5007269;28;20070;-65
2023/02/21 12:32:46;;;;;;;74.50;25.25;;;15.60;64.40;;;;;;5007293;28;20496;-66
2023/02/21 12:35:41;;;;;;;68.50;27.77;;;15.60;64.20;;;;;;5007621;28;20137;-65
2023/02/21 12:38:13;;;;;;;75.95;27.40;;;15.60;64.00;;;;;;5010390;28;20077;-66
2023/02/21 12:41:07;;;;;;;73.40;26.77;;;15.50;64.40;;;;;;5011033;28;20102;-65
2023/02/21 12:43:50;;;;;;;82.25;27.27;;;15.40;64.90;;;;;;5010577;28;20074;-66
2023/02/21 12:46:26;;;;;;;81.95;27.00;;;15.40;64.40;;;;;;5010922;28;20094;-67
2023/02/21 12:49:28;;;;;;;63.83;25.60;;;15.30;65.00;;;;;;5011340;28;20531;-65
2023/02/21 12:52:27;;;;;;;75.75;26.98;;;15.20;65.60;;;;;;4951388;29;20549;-65
2023/02/21 12:54:54;;;;;;;98.38;27.02;;;15.20;65.60;;;;;;4950946;29;20107;-64
2023/02/21 12:57:43;;;;;;;72.60;27.13;;;15.10;65.90;;;;;;4951245;29;20210;-65
2023/02/21 13:00:42;;;;;;;76.65;27.83;;;15.00;66.20;;;;;;4944215;29;20088;-64
2023/02/21 13:03:35;;;;;;;292.67;37.33;;;15.10;67.30;;;;;;4936094;29;20126;-65
2023/02/21 13:06:34;;;;;;;235.63;34.72;;;15.00;66.30;;;;;;4929332;29;20124;-65
2023/02/21 13:09:25;;;;;;;92.20;28.35;;;15.10;66.40;;;;;;4950642;29;20096;-66
2023/02/21 13:12:11;;;;;;;90.35;28.63;;;15.00;66.80;;;;;;4949868;29;20474;-65
2023/02/21 13:14:57;;;;;;;71.18;27.88;;;14.90;68.30;;;;;;4950873;29;20497;-65
2023/02/21 13:17:25;;;;;;;82.03;28.88;;;14.80;67.20;;;;;;4950554;29;20108;-65
2023/02/21 13:20:00;;;;;;;78.43;26.58;;;14.70;67.20;;;;;;4949442;29;20098;-64
2023/02/21 13:25:58;;;;;;;75.25;28.52;;;14.60;68.10;;;;;;4950961;29;20103;-64
2023/02/21 13:28:29;;;;;;;68.60;27.73;;;14.50;68.50;;;;;;5003873;28;20114;-65
2023/02/21 13:31:01;;;;;;;79.00;27.25;;;14.40;68.70;;;;;;5010976;28;20161;-64
2023/02/21 13:33:37;;;;;;;75.43;28.00;;;14.40;69.10;;;;;;5012678;28;20078;-66
2023/02/21 13:36:42;;;;;;;67.40;25.90;;;14.30;69.40;;;;;;5010797;28;20136;-64
2023/02/21 13:39:08;;;;;;;73.63;26.88;;;14.30;69.80;;;;;;5009785;28;20077;-65
2023/02/21 13:41:36;;;;;;;;;;;14.20;70.00;;;;;;5011279;28;20104;-65
2023/02/21 13:44:11;;;;;;;74.43;26.73;;;14.20;70.30;;;;;;5010745;28;20009;-65
2023/02/21 13:46:37;;;;;;;77.10;25.90;;;14.10;70.70;;;;;;5010413;28;20097;-65
2023/02/21 13:49:37;;;;;;;66.65;24.65;;;14.10;71.20;;;;;;5009454;28;20094;-65
2023/02/21 13:52:18;;;;;;;71.25;26.17;;;14.20;71.30;;;;;;5010931;28;20074;-66
2023/02/21 13:55:19;;;;;;;61.92;25.10;;;14.10;72.40;;;;;;5010639;28;20114;-64
2023/02/21 13:57:57;;;;;;;72.50;25.20;;;14.00;72.10;;;;;;5010465;28;20185;-65
2023/02/21 14:00:26;;;;;;;70.78;26.27;;;13.90;72.60;;;;;;5009091;28;21599;-64
2023/02/21 14:03:27;;;;;;;71.25;26.08;;;13.90;72.90;;;;;;5009146;28;20109;-65
2023/02/21 14:05:53;;;;;;;73.63;26.25;;;13.90;72.40;;;;;;5009883;28;20154;-64
2023/02/21 14:08:26;;;;;;;79.38;26.33;;;13.80;72.50;;;;;;5010301;28;20242;-65
2023/02/21 14:11:14;;;;;;;76.03;26.52;;;13.80;72.70;;;;;;5009639;28;20070;-65
2023/02/21 14:13:47;;;;;;;80.22;26.58;;;13.80;73.10;;;;;;5009739;28;20447;-65
2023/02/21 14:16:14;;;;;;;80.22;27.42;;;13.70;72.70;;;;;;5008918;28;20615;-66
2023/02/21 14:18:45;;;;;;;;;;;13.70;72.50;;;;;;5010027;28;20125;-65
2023/02/21 14:21:21;;;;;;;72.78;25.65;;;13.70;72.60;;;;;;5009306;28;20081;-64
2023/02/21 14:24:12;;;;;;;80.35;27.17;;;13.60;72.40;;;;;;5010639;28;20450;-65
2023/02/21 14:26:50;;;;;;;89.75;28.13;;;13.60;72.40;;;;;;5009517;28;20536;-63
2023/02/21 14:29:34;;;;;;;93.32;29.85;;;13.60;72.60;;;;;;5009596;28;20070;-65
2023/02/21 14:32:03;;;;;;;116.25;34.13;;;13.60;72.80;;;;;;5009081;28;20431;-67
2023/02/21 14:34:54;;;;;;;98.95;31.90;;;13.50;73.30;;;;;;5010448;28;20062;-65
2023/02/21 14:37:43;;;;;;;119.53;36.42;;;13.60;73.70;;;;;;5008992;28;20601;-65
2023/02/21 14:40:33;;;;;;;148.32;39.33;;;13.60;73.20;;;;;;5008601;28;20074;-66
2023/02/21 14:43:41;;;;;;;139.98;39.90;;;13.50;73.30;;;;;;5009123;28;20082;-65
2023/02/21 14:46:16;;;;;;;150.70;37.45;;;13.50;73.30;;;;;;5002848;28;20106;-66
2023/02/21 14:48:54;;;;;;;146.98;39.67;;;13.50;73.40;;;;;;5009512;28;20222;-66
2023/02/21 14:51:38;;;;;;;145.30;39.60;;;13.50;73.70;;;;;;5009227;28;20120;-66
2023/02/21 14:54:36;;;;;;;158.48;38.58;;;13.50;74.00;;;;;;5008739;28;20106;-63
2023/02/21 14:57:48;;;;;;;139.50;37.60;;;13.60;74.10;;;;;;5008344;28;20118;-64
2023/02/21 15:00:32;;;;;;;149.52;36.63;;;13.60;74.20;;;;;;5007475;28;20070;-65
2023/02/21 15:03:18;;;;;;;134.50;37.33;;;13.70;74.20;;;;;;5007828;28;20100;-64
2023/02/21 15:05:59;;;;;;;106.10;36.53;;;13.70;74.30;;;;;;5009306;28;20213;-65
2023/02/21 15:08:27;;;;;;;122.90;33.72;;;13.70;74.40;;;;;;5009053;28;20066;-67
2023/02/21 15:11:01;;;;;;;118.57;33.13;;;13.80;74.30;;;;;;5008486;28;20078;-64
2023/02/21 15:13:32;;;;;;;134.75;32.95;;;13.80;74.20;;;;;;5008373;28;20074;-64
2023/02/21 15:16:05;;;;;;;131.90;33.17;;;13.90;74.40;;;;;;5008102;28;20428;-67
2023/02/21 15:18:33;;;;;;;103.45;32.47;;;13.80;74.60;;;;;;5008265;28;20090;-65
2023/02/21 15:21:03;;;;;;;117.20;32.53;;;13.90;74.80;;;;;;5009544;28;20482;-65
2023/02/21 15:23:30;;;;;;;120.47;33.13;;;14.00;74.60;;;;;;5008257;28;20083;-64